Time;durP1;ratioP1;P1;durP2;ratioP2;P2;SDS_P1;SDS_P2;PMS_P1;PMS_P2;Temp;Humidity;BMP_temperature;BMP_pressure;BME280_temperature;BME280_humidity;BME280_pressure;Samples;Min_cycle;Max_cycle;Signal;HPM_P1;HPM_P2
2021/04/14 00:00:49;;;;;;;7.00;1.85;;;;;;;23.73;40.75;99709.56;4483773;32;33473;-56
2021/04/14 00:03:20;;;;;;;7.05;1.80;;;;;;;23.88;40.63;99707.28;4484346;32;33185;-57
2021/04/14 00:05:47;;;;;;;13.00;2.10;;;;;;;24.04;40.45;99701.16;4484500;32;33889;-58
2021/04/14 00:08:18;;;;;;;5.78;1.50;;;;;;;24.21;40.19;99703.22;4484341;32;33617;-58
2021/04/14 00:10:45;;;;;;;6.37;1.50;;;;;;;24.34;39.99;99694.78;4484325;32;34299;-57
2021/04/14 00:13:15;;;;;;;8.02;1.67;;;;;;;24.48;39.84;99693.56;4484082;32;33156;-58
2021/04/14 00:15:45;;;;;;;7.93;1.85;;;;;;;24.60;39.73;99697.09;4484390;32;33791;-58
2021/04/14 00:18:12;;;;;;;6.62;1.40;;;;;;;24.73;39.57;99689.75;4484190;32;33872;-58
2021/04/14 00:20:40;;;;;;;5.93;1.60;;;;;;;24.88;39.27;99688.19;4484273;32;33689;-56
2021/04/14 00:23:08;;;;;;;7.62;1.90;;;;;;;24.97;39.11;99691.41;4484063;32;33265;-55
2021/04/14 00:25:38;;;;;;;9.05;1.98;;;;;;;25.04;38.96;99696.72;4484346;32;33860;-56
2021/04/14 00:28:22;;;;;;;6.15;1.30;;;;;;;25.11;38.82;99702.94;4484250;32;33595;-57
2021/04/14 00:30:50;;;;;;;5.70;1.42;;;;;;;25.19;38.65;99697.09;4484094;32;33937;-57
2021/04/14 00:33:17;;;;;;;4.28;1.92;;;;;;;25.21;38.59;99703.13;4484133;32;35095;-56
2021/04/14 00:35:44;;;;;;;6.53;1.40;;;;;;;25.23;38.52;99701.00;4484022;32;33876;-58
2021/04/14 00:38:13;;;;;;;6.18;1.50;;;;;;;25.25;38.47;99703.50;4483832;32;33802;-58
2021/04/14 00:40:42;;;;;;;8.13;1.45;;;;;;;25.25;38.42;99704.31;4484102;32;33757;-56
2021/04/14 00:43:16;;;;;;;3.95;1.50;;;;;;;25.27;38.35;99704.91;4483772;32;34143;-57
2021/04/14 00:45:51;;;;;;;6.72;1.37;;;;;;;25.27;38.31;99707.62;4483914;32;33826;-58
2021/04/14 00:48:18;;;;;;;6.97;1.77;;;;;;;25.26;38.30;99716.91;4484066;32;34056;-58
2021/04/14 00:50:46;;;;;;;6.22;1.80;;;;;;;25.24;38.38;99712.75;4482699;32;34276;-54
2021/04/14 00:53:13;;;;;;;10.05;1.52;;;;;;;25.21;38.34;99710.50;4483619;32;34198;-56
2021/04/14 00:55:40;;;;;;;5.28;1.48;;;;;;;25.21;38.38;99710.50;4484012;32;34518;-58
2021/04/14 00:58:09;;;;;;;6.30;1.50;;;;;;;25.17;38.41;99705.50;4483606;32;34580;-54
2021/04/14 01:00:40;;;;;;;8.82;1.70;;;;;;;25.15;38.56;99713.13;4483941;32;34253;-58
2021/04/14 01:03:14;;;;;;;8.63;1.42;;;;;;;25.12;38.69;99708.12;4483680;32;33340;-57
2021/04/14 01:05:41;;;;;;;6.65;1.48;;;;;;;25.09;38.86;99703.19;4483779;32;33713;-57
2021/04/14 01:08:08;;;;;;;4.55;1.60;;;;;;;25.05;38.84;99701.97;4483819;32;33917;-58
2021/04/14 01:10:35;;;;;;;6.12;1.25;;;;;;;25.03;38.84;99705.97;4483494;32;33815;-56
2021/04/14 01:13:02;;;;;;;5.53;1.33;;;;;;;25.00;38.78;99710.03;4483467;32;33098;-57
2021/04/14 01:15:38;;;;;;;5.45;1.58;;;;;;;24.96;38.75;99702.56;4484002;32;33766;-59
2021/04/14 01:18:06;;;;;;;4.05;1.20;;;;;;;24.95;38.73;99707.19;4483378;32;33861;-56
2021/04/14 01:20:34;;;;;;;5.00;1.37;;;;;;;24.93;38.68;99701.97;4483736;32;33407;-54
2021/04/14 01:23:01;;;;;;;5.07;1.30;;;;;;;24.90;38.92;99704.31;4483601;32;34005;-54
2021/04/14 01:25:31;;;;;;;5.62;1.58;;;;;;;24.85;39.02;99705.03;4483584;32;33662;-56
2021/04/14 01:27:58;;;;;;;8.23;1.45;;;;;;;24.82;39.08;99707.44;4483581;32;33927;-58
2021/04/14 01:30:27;;;;;;;7.22;1.45;;;;;;;24.81;39.05;99700.34;4483507;32;34480;-59
2021/04/14 01:32:54;;;;;;;3.67;1.05;;;;;;;24.77;39.06;99699.16;4482778;32;33175;-57
2021/04/14 01:35:25;;;;;;;5.97;1.40;;;;;;;24.74;39.17;99694.16;4482962;32;33829;-55
2021/04/14 01:37:52;;;;;;;5.20;1.15;;;;;;;24.70;39.16;99696.50;4483306;32;33806;-58
2021/04/14 01:40:20;;;;;;;3.40;1.17;;;;;;;24.68;39.29;99701.41;4483279;32;34522;-58
2021/04/14 01:42:48;;;;;;;7.87;1.50;;;;;;;24.64;39.33;99702.94;4483348;32;33352;-57
2021/04/14 01:45:17;;;;;;;5.10;1.40;;;;;;;24.60;39.37;99701.75;4483323;32;33758;-55
2021/04/14 01:47:58;;;;;;;5.50;1.20;;;;;;;24.57;39.40;99702.19;4483691;32;33516;-57
2021/04/14 01:50:26;;;;;;;5.45;1.48;;;;;;;24.55;39.44;99710.63;4483081;32;33408;-58
2021/04/14 01:52:54;;;;;;;6.60;1.52;;;;;;;24.51;39.48;99706.72;4483012;32;33254;-55
2021/04/14 01:55:22;;;;;;;3.45;1.27;;;;;;;24.49;39.48;99705.31;4483196;32;33759;-55
2021/04/14 01:57:49;;;;;;;6.55;1.58;;;;;;;24.46;39.55;99701.13;4483056;32;33786;-58
2021/04/14 02:00:23;;;;;;;4.75;1.35;;;;;;;24.43;39.58;99697.00;4482705;32;34461;-56
2021/04/14 02:02:50;;;;;;;3.58;1.50;;;;;;;24.40;39.60;99700.19;4482912;32;33357;-58
2021/04/14 02:05:20;;;;;;;4.82;1.37;;;;;;;24.38;39.63;99694.13;4483148;32;33799;-58
2021/04/14 02:07:47;;;;;;;4.60;1.48;;;;;;;24.35;39.70;99694.56;4482937;32;33649;-58
2021/04/14 02:10:14;;;;;;;5.90;1.40;;;;;;;24.34;39.76;99692.91;4482837;32;33645;-56
2021/04/14 02:12:42;;;;;;;3.60;1.23;;;;;;;24.31;39.81;99682.47;4482466;32;34301;-57
2021/04/14 02:15:12;;;;;;;5.35;1.37;;;;;;;24.29;39.85;99691.94;4482685;32;34440;-58
2021/04/14 02:17:40;;;;;;;6.47;1.37;;;;;;;24.26;39.84;99686.97;4483018;32;34684;-58
2021/04/14 02:20:08;;;;;;;4.22;1.65;;;;;;;24.25;39.83;99697.06;4482700;32;34548;-58
2021/04/14 02:22:35;;;;;;;5.22;1.20;;;;;;;24.24;39.84;99694.53;4468964;32;34403;-54
2021/04/14 02:25:06;;;;;;;7.37;1.30;;;;;;;24.20;39.79;99691.44;4485024;32;33875;-56
2021/04/14 02:27:33;;;;;;;6.68;1.37;;;;;;;24.18;39.86;99691.69;4485090;32;33850;-57
2021/04/14 02:30:00;;;;;;;5.45;1.20;;;;;;;24.16;39.89;99688.37;4485061;32;34469;-58
2021/04/14 02:32:28;;;;;;;6.30;1.20;;;;;;;24.14;39.84;99685.03;4484746;32;34158;-59
2021/04/14 02:34:55;;;;;;;2.65;0.90;;;;;;;24.13;39.94;99683.38;4484680;32;34635;-54
2021/04/14 02:37:22;;;;;;;3.90;1.15;;;;;;;24.11;39.94;99687.44;4484598;32;34835;-58
2021/04/14 02:39:49;;;;;;;4.93;1.00;;;;;;;24.09;39.85;99684.91;4484957;32;33787;-58
2021/04/14 02:42:16;;;;;;;4.82;1.60;;;;;;;24.07;39.87;99681.59;4484552;32;33196;-56
2021/04/14 02:44:43;;;;;;;5.90;1.12;;;;;;;24.06;39.88;99681.81;4484986;32;33589;-57
2021/04/14 02:47:11;;;;;;;8.38;1.33;;;;;;;24.05;40.00;99686.44;4484824;32;33791;-58
2021/04/14 02:49:38;;;;;;;8.85;1.40;;;;;;;24.03;39.99;99680.41;4483404;32;33849;-56
2021/04/14 02:52:25;;;;;;;10.70;1.87;;;;;;;24.01;39.99;99678.97;4483432;32;33117;-57
2021/04/14 02:54:52;;;;;;;5.93;1.17;;;;;;;24.00;39.97;99680.03;4484586;32;34523;-53
2021/04/14 02:57:19;;;;;;;5.65;1.20;;;;;;;23.98;40.10;99674.84;4484811;32;34514;-57
2021/04/14 02:59:46;;;;;;;3.62;1.20;;;;;;;23.97;40.07;99686.81;4485052;32;33503;-56
2021/04/14 03:02:13;;;;;;;3.22;1.23;;;;;;;23.95;40.01;99682.63;4484231;32;34184;-58
2021/04/14 03:04:40;;;;;;;8.05;1.48;;;;;;;23.93;40.01;99691.06;4483334;32;33910;-56
2021/04/14 03:07:07;;;;;;;5.72;1.30;;;;;;;23.92;40.05;99692.09;4484631;32;34776;-59
2021/04/14 03:09:36;;;;;;;4.43;1.12;;;;;;;23.90;40.07;99689.59;4484623;32;34440;-57
2021/04/14 03:12:03;;;;;;;5.55;1.52;;;;;;;23.89;40.04;99693.41;4484039;32;33245;-57
2021/04/14 03:14:31;;;;;;;5.85;1.23;;;;;;;23.87;40.05;99691.97;4484709;32;33534;-58
2021/04/14 03:16:58;;;;;;;9.65;1.37;;;;;;;23.86;40.07;99691.13;4484385;32;33563;-57
2021/04/14 03:19:25;;;;;;;4.12;1.27;;;;;;;23.85;40.09;99692.19;4484614;32;34250;-51
2021/04/14 03:21:53;;;;;;;8.02;1.10;;;;;;;23.85;40.10;99696.81;4484393;32;33175;-58
2021/04/14 03:24:20;;;;;;;7.12;1.30;;;;;;;23.84;40.09;99695.16;4484538;32;34396;-55
2021/04/14 03:26:47;;;;;;;4.12;1.10;;;;;;;23.82;40.10;99700.81;4484561;32;33595;-51
2021/04/14 03:29:14;;;;;;;14.43;1.20;;;;;;;23.80;40.12;99700.25;4484546;32;34573;-55
2021/04/14 03:31:41;;;;;;;5.57;1.17;;;;;;;23.80;40.06;99699.41;4484111;32;33136;-57
2021/04/14 03:34:09;;;;;;;3.83;1.20;;;;;;;23.79;40.11;99704.03;4484605;32;33639;-58
2021/04/14 03:36:36;;;;;;;4.00;1.30;;;;;;;23.77;40.11;99700.69;4484304;32;33821;-58
2021/04/14 03:39:05;;;;;;;4.05;1.20;;;;;;;23.78;40.23;99704.25;4484176;32;34597;-53
2021/04/14 03:41:32;;;;;;;7.22;1.30;;;;;;;23.75;40.16;99702.00;4484226;32;33134;-57
2021/04/14 03:43:59;;;;;;;4.37;1.35;;;;;;;23.74;40.18;99700.34;4484362;32;34753;-59
2021/04/14 03:46:26;;;;;;;4.00;1.30;;;;;;;23.74;40.18;99701.19;4484373;32;34019;-57
2021/04/14 03:48:54;;;;;;;8.32;1.15;;;;;;;23.74;40.15;99700.34;4484530;32;34637;-58
2021/04/14 03:51:22;;;;;;;5.25;0.98;;;;;;;23.72;40.24;99699.72;4482883;32;33517;-57
2021/04/14 03:53:49;;;;;;;3.53;1.08;;;;;;;23.70;40.30;99704.59;4484263;31;34938;-57
2021/04/14 03:56:34;;;;;;;4.22;1.10;;;;;;;23.70;40.31;99712.75;4484525;32;34031;-52
2021/04/14 03:59:19;;;;;;;5.55;1.30;;;;;;;23.68;40.31;99710.25;4484233;32;34661;-56
2021/04/14 04:01:47;;;;;;;11.55;1.33;;;;;;;23.65;40.34;99708.84;4484231;32;33343;-59
2021/04/14 04:04:19;;;;;;;3.30;1.10;;;;;;;23.64;40.34;99709.91;4484161;32;33859;-58
2021/04/14 04:06:46;;;;;;;4.03;1.00;;;;;;;23.64;40.37;99717.22;4478204;32;33940;-51
2021/04/14 04:09:13;;;;;;;2.78;1.02;;;;;;;23.64;40.38;99717.22;4478765;32;33633;-49
2021/04/14 04:11:40;;;;;;;3.80;1.00;;;;;;;23.63;40.40;99715.53;4484113;32;33351;-50
2021/04/14 04:14:07;;;;;;;6.07;1.30;;;;;;;23.62;40.38;99711.97;4484151;32;34596;-50
2021/04/14 04:16:34;;;;;;;2.42;1.08;;;;;;;23.60;40.39;99714.09;4469822;32;34840;-50
2021/04/14 04:19:02;;;;;;;4.62;1.23;;;;;;;23.60;40.39;99721.47;4475596;32;34527;-58
2021/04/14 04:21:29;;;;;;;4.50;1.30;;;;;;;23.59;40.41;99722.50;4484182;32;33263;-58
2021/04/14 04:23:57;;;;;;;5.32;1.33;;;;;;;23.58;40.43;99726.28;4483966;32;34756;-56
2021/04/14 04:26:24;;;;;;;6.87;1.35;;;;;;;23.58;40.40;99723.56;4468486;32;33850;-57
2021/04/14 04:28:51;;;;;;;8.00;1.30;;;;;;;23.57;40.43;99730.06;4468460;32;33469;-56
2021/04/14 04:31:18;;;;;;;4.53;1.10;;;;;;;23.55;40.43;99730.31;4468594;32;33177;-58
2021/04/14 04:33:46;;;;;;;11.98;1.37;;;;;;;23.56;40.42;99736.59;4468506;32;34766;-55
2021/04/14 04:36:13;;;;;;;8.15;1.30;;;;;;;23.54;40.46;99746.88;4469092;32;34663;-58
2021/04/14 04:38:41;;;;;;;5.15;1.37;;;;;;;23.53;40.49;99737.88;4484090;32;34782;-57
2021/04/14 04:41:08;;;;;;;4.78;1.30;;;;;;;23.53;40.42;99739.75;4484064;32;33254;-57
2021/04/14 04:43:35;;;;;;;7.55;1.33;;;;;;;23.52;40.47;99740.81;4484063;32;33679;-57
2021/04/14 04:46:02;;;;;;;7.28;1.42;;;;;;;23.52;40.50;99747.09;4483598;32;33843;-54
2021/04/14 04:48:29;;;;;;;8.23;1.23;;;;;;;23.51;40.49;99753.62;4477971;32;34704;-53
2021/04/14 04:50:57;;;;;;;4.15;1.80;;;;;;;23.50;40.51;99759.25;4480076;32;33346;-48
2021/04/14 04:53:24;;;;;;;4.03;1.23;;;;;;;23.50;40.61;99762.00;4483795;31;33900;-47
2021/04/14 04:55:51;;;;;;;6.32;1.40;;;;;;;23.49;40.56;99763.06;4483526;32;34854;-56
2021/04/14 04:58:25;;;;;;;5.62;1.30;;;;;;;23.48;40.56;99772.28;4481454;32;33891;-57
2021/04/14 05:00:53;;;;;;;4.20;1.07;;;;;;;23.48;40.54;99772.28;4483880;32;33223;-56
2021/04/14 05:03:24;;;;;;;5.80;1.17;;;;;;;23.47;40.51;99771.47;4473065;32;34793;-55
2021/04/14 05:05:51;;;;;;;3.70;0.98;;;;;;;23.46;40.50;99785.31;4461712;32;33820;-50
2021/04/14 05:08:35;;;;;;;5.00;1.37;;;;;;;23.45;40.54;99786.34;4469372;32;34257;-53
2021/04/14 05:11:02;;;;;;;3.60;1.10;;;;;;;23.43;40.51;99778.41;4483769;32;33282;-50
2021/04/14 05:13:30;;;;;;;4.78;1.27;;;;;;;23.43;40.53;99781.97;4472804;32;33455;-55
2021/04/14 05:15:57;;;;;;;8.23;1.30;;;;;;;23.42;40.56;99784.94;4467954;32;33809;-55
2021/04/14 05:18:24;;;;;;;4.15;1.37;;;;;;;23.41;40.52;99788.72;4468006;32;33714;-53
2021/04/14 05:20:51;;;;;;;4.78;1.15;;;;;;;23.39;40.55;99788.91;4467960;32;33239;-52
2021/04/14 05:23:22;;;;;;;3.20;1.00;;;;;;;23.39;40.65;99793.53;4473492;32;33935;-57
2021/04/14 05:25:50;;;;;;;5.85;1.10;;;;;;;23.40;40.59;99789.75;4483854;32;33964;-54
2021/04/14 05:28:24;;;;;;;4.50;1.00;;;;;;;23.39;40.63;99785.38;4483464;32;33799;-53
2021/04/14 05:30:52;;;;;;;3.37;0.90;;;;;;;23.37;40.74;99782.06;4483249;32;34270;-53
2021/04/14 05:33:19;;;;;;;10.65;1.65;;;;;;;23.37;40.49;99773.88;4482905;32;33580;-54
2021/04/14 05:35:49;;;;;;;;;;;;;;;23.36;40.42;99786.69;4481626;32;34029;-53
2021/04/14 05:38:24;;;;;;;9.00;1.20;;;;;;;23.46;40.40;99777.97;4483094;32;33637;-57
2021/04/14 05:40:52;;;;;;;5.07;1.00;;;;;;;23.38;40.45;99778.28;4483364;32;33206;-58
2021/04/14 05:43:28;;;;;;;7.78;1.00;;;;;;;23.35;40.52;99781.44;4474402;32;34568;-48
2021/04/14 05:45:56;;;;;;;10.80;1.30;;;;;;;23.32;40.51;99784.62;4467968;32;34052;-57
2021/04/14 05:48:24;;;;;;;20.12;1.77;;;;;;;23.33;40.55;99778.13;4480811;31;33891;-54
2021/04/14 05:50:51;;;;;;;11.32;1.60;;;;;;;23.31;40.02;99777.50;4482884;32;33395;-54
2021/04/14 05:53:27;;;;;;;11.27;1.75;;;;;;;23.30;39.71;99787.56;4473674;32;33802;-49
2021/04/14 05:55:58;;;;;;;5.90;1.42;;;;;;;23.29;39.55;99776.91;4475506;32;34655;-48
2021/04/14 05:58:32;;;;;;;8.50;1.55;;;;;;;23.28;39.56;99775.25;4478630;32;33633;-48
2021/04/14 06:00:59;;;;;;;6.50;1.35;;;;;;;23.28;39.67;99780.69;4484943;32;33254;-48
2021/04/14 06:03:26;;;;;;;12.55;2.17;;;;;;;23.27;39.74;99771.69;4470634;32;34001;-49
2021/04/14 06:05:54;;;;;;;12.15;1.73;;;;;;;23.25;39.86;99775.69;4484829;32;34535;-50
2021/04/14 06:08:25;;;;;;;7.90;1.40;;;;;;;23.25;39.92;99781.13;4485039;32;33781;-48
2021/04/14 06:10:57;;;;;;;11.05;1.95;;;;;;;23.29;39.84;99774.19;4481726;32;33408;-50
2021/04/14 06:13:31;;;;;;;6.60;1.40;;;;;;;23.28;39.97;99780.69;4482010;32;33822;-49
2021/04/14 06:16:05;;;;;;;6.82;1.30;;;;;;;23.33;40.14;99786.28;4483186;32;34935;-53
2021/04/14 06:18:41;;;;;;;8.00;1.62;;;;;;;23.37;40.19;99787.50;4481504;32;33431;-49
2021/04/14 06:21:09;;;;;;;4.72;1.77;;;;;;;23.52;40.07;99782.50;4468924;32;33237;-54
2021/04/14 06:23:36;;;;;;;5.97;1.42;;;;;;;23.65;40.00;99784.28;4468957;32;33683;-53
2021/04/14 06:26:25;;;;;;;10.15;1.37;;;;;;;23.77;39.89;99787.87;4469187;32;33604;-54
2021/04/14 06:28:54;;;;;;;5.53;1.42;;;;;;;23.89;39.76;99794.22;4467653;32;33692;-50
2021/04/14 06:31:28;;;;;;;7.55;1.27;;;;;;;24.05;39.58;99794.66;4476045;32;34009;-53
2021/04/14 06:33:55;;;;;;;6.35;1.37;;;;;;;24.19;39.41;99796.94;4470266;32;33470;-52
2021/04/14 06:36:22;;;;;;;6.70;1.35;;;;;;;24.34;39.27;99798.41;4484840;32;33523;-52
2021/04/14 06:38:52;;;;;;;3.90;1.40;;;;;;;24.48;39.12;99799.06;4484770;32;33491;-56
2021/04/14 06:44:21;;;;;;;7.20;1.42;;;;;;;24.77;38.69;99803.66;4468964;32;33808;-54
2021/04/14 06:46:52;;;;;;;8.52;1.70;;;;;;;24.89;38.50;99806.38;4467964;32;33641;-52
2021/04/14 06:49:22;;;;;;;5.05;1.33;;;;;;;25.01;38.36;99809.13;4454858;32;33865;-50
2021/04/14 06:51:51;;;;;;;;;;;;;;;25.07;38.27;99808.19;4469423;32;33043;-52
2021/04/14 06:54:34;;;;;;;6.35;1.40;;;;;;;25.24;37.90;99816.53;4470640;32;34194;-55
2021/04/14 06:57:21;;;;;;;4.40;1.73;;;;;;;25.18;37.89;99810.97;4476570;32;33512;-55
2021/04/14 07:00:03;;;;;;;7.40;1.40;;;;;;;25.22;37.82;99814.03;4483022;32;33507;-57
2021/04/14 07:02:54;;;;;;;5.03;1.60;;;;;;;25.22;37.86;99814.03;4484578;32;33027;-56
2021/04/14 07:05:23;;;;;;;4.12;1.17;;;;;;;25.25;37.85;99821.75;4482848;32;33791;-56
2021/04/14 07:07:55;;;;;;;4.55;1.30;;;;;;;25.22;37.86;99824.94;4482850;32;34569;-55
2021/04/14 07:10:28;;;;;;;4.80;1.33;;;;;;;25.22;38.03;99824.94;4470073;32;34714;-56
2021/04/14 07:13:10;;;;;;;4.70;1.10;;;;;;;25.22;38.06;99824.13;4483508;32;33356;-53
2021/04/14 07:15:37;;;;;;;10.40;1.83;;;;;;;25.19;38.11;99834.47;4483164;32;33698;-53
2021/04/14 07:18:22;;;;;;;5.65;1.20;;;;;;;25.18;38.18;99830.06;4469858;32;33913;-53
2021/04/14 07:21:17;;;;;;;4.80;1.12;;;;;;;25.18;38.15;99831.94;4483024;32;33679;-54
2021/04/14 07:23:51;;;;;;;4.50;1.33;;;;;;;25.15;38.22;99833.25;4484337;32;33442;-54
2021/04/14 07:26:44;;;;;;;6.50;1.48;;;;;;;25.11;38.24;99833.97;4483236;32;33752;-54
2021/04/14 07:29:35;;;;;;;4.68;1.30;;;;;;;25.09;38.22;99831.50;4483161;32;34660;-57
2021/04/14 07:32:42;;;;;;;9.43;1.48;;;;;;;25.07;38.22;99841.81;4483228;32;33678;-56
2021/04/14 07:35:27;;;;;;;5.62;1.50;;;;;;;25.05;38.22;99832.19;4464817;32;33147;-56
2021/04/14 07:38:22;;;;;;;5.80;1.58;;;;;;;24.99;38.35;99842.13;4471814;32;33622;-58
2021/04/14 07:41:09;;;;;;;4.80;1.27;;;;;;;24.97;38.47;99846.16;4484282;32;33836;-56
2021/04/14 07:44:08;;;;;;;4.57;1.30;;;;;;;24.92;38.54;99847.69;4475861;32;33682;-54
2021/04/14 07:46:54;;;;;;;5.93;1.20;;;;;;;24.92;38.61;99846.88;4483030;32;34088;-51
2021/04/14 07:49:21;;;;;;;4.45;1.30;;;;;;;24.85;38.71;99846.97;4483813;32;33548;-54
2021/04/14 07:51:48;;;;;;;4.95;1.62;;;;;;;24.80;38.81;99848.72;4484015;32;33949;-53
2021/04/14 07:54:22;;;;;;;5.78;1.15;;;;;;;24.78;38.87;99842.69;4484120;31;33826;-58
2021/04/14 07:56:54;;;;;;;4.90;1.15;;;;;;;24.75;38.88;99843.97;4483956;32;33053;-48
2021/04/14 07:59:32;;;;;;;3.22;1.12;;;;;;;24.72;39.09;99846.38;4484101;32;33633;-49
2021/04/14 08:02:00;;;;;;;8.77;1.80;;;;;;;24.69;39.01;99845.75;4482589;32;34243;-56
2021/04/14 08:04:35;;;;;;;4.45;1.40;;;;;;;24.65;39.09;99838.28;4483657;32;33811;-48
2021/04/14 08:07:13;;;;;;;7.47;1.60;;;;;;;24.63;39.03;99834.97;4483810;32;36054;-50
2021/04/14 08:09:57;;;;;;;5.90;1.52;;;;;;;24.60;39.09;99838.12;4483274;32;33618;-56
2021/04/14 08:12:48;;;;;;;6.80;1.40;;;;;;;24.56;39.09;99835.03;4484003;32;33832;-56
2021/04/14 08:15:24;;;;;;;7.25;1.40;;;;;;;24.51;39.21;99839.53;4474774;32;33897;-50
2021/04/14 08:17:53;;;;;;;5.10;1.27;;;;;;;24.50;39.21;99848.78;4470656;32;33951;-55
2021/04/14 08:20:35;;;;;;;5.75;1.42;;;;;;;24.49;39.23;99855.31;4481972;32;34708;-49
2021/04/14 08:23:18;;;;;;;6.10;1.40;;;;;;;24.49;39.13;99849.88;4483825;32;33876;-51
2021/04/14 08:25:56;;;;;;;9.07;1.30;;;;;;;24.48;39.16;99845.44;4483869;32;33706;-55
2021/04/14 08:28:42;;;;;;;4.80;1.25;;;;;;;24.44;39.19;99856.00;4483929;32;34254;-56
2021/04/14 08:31:34;;;;;;;6.10;1.40;;;;;;;24.41;39.29;99849.09;4482774;32;34181;-56
2021/04/14 08:34:11;;;;;;;5.05;1.30;;;;;;;24.38;39.34;99855.03;4483906;32;34631;-56
2021/04/14 08:36:42;;;;;;;8.52;1.35;;;;;;;24.35;39.47;99852.75;4482356;32;34057;-53
2021/04/14 08:39:15;;;;;;;6.28;1.48;;;;;;;24.32;39.57;99855.09;4483632;32;33349;-55
2021/04/14 08:41:42;;;;;;;7.05;1.73;;;;;;;24.31;39.63;99858.88;4482131;32;33732;-55
2021/04/14 08:44:13;;;;;;;5.50;1.42;;;;;;;24.28;39.63;99865.63;4482673;32;34214;-51
2021/04/14 08:46:41;;;;;;;7.30;1.50;;;;;;;24.26;39.63;99865.03;4483607;32;34564;-48
2021/04/14 08:49:11;;;;;;;5.85;1.30;;;;;;;24.26;39.65;99858.75;4482428;32;34226;-53
2021/04/14 08:51:41;;;;;;;6.82;1.48;;;;;;;24.24;39.67;99853.50;4482401;32;34905;-56
2021/04/14 08:54:12;;;;;;;5.97;1.33;;;;;;;24.23;39.70;99856.47;4482231;32;33822;-55
2021/04/14 08:56:39;;;;;;;3.70;1.33;;;;;;;24.22;39.73;99852.91;4469737;32;35245;-50
2021/04/14 08:59:09;;;;;;;9.18;1.37;;;;;;;24.20;39.75;99849.56;4483644;32;33411;-53
2021/04/14 09:01:36;;;;;;;8.38;1.17;;;;;;;24.17;39.74;99850.88;4482518;32;33902;-52
2021/04/14 09:04:07;;;;;;;7.50;1.50;;;;;;;24.17;39.74;99848.16;4482487;32;33832;-56
2021/04/14 09:06:35;;;;;;;11.55;1.80;;;;;;;24.16;39.78;99845.66;4469327;32;33717;-56
2021/04/14 09:09:04;;;;;;;7.87;1.47;;;;;;;24.15;39.78;99849.44;4482327;32;34323;-54
2021/04/14 09:11:31;;;;;;;8.88;1.60;;;;;;;24.14;39.80;99851.34;4469483;32;33790;-55
2021/04/14 09:14:06;;;;;;;7.43;1.35;;;;;;;24.12;39.84;99853.47;4483366;32;33918;-56
2021/04/14 09:16:54;;;;;;;6.10;1.23;;;;;;;24.10;39.86;99858.31;4483517;32;34885;-56
2021/04/14 09:19:41;;;;;;;7.80;1.45;;;;;;;24.11;39.86;99849.09;4482240;32;34175;-55
2021/04/14 09:22:15;;;;;;;6.90;1.45;;;;;;;24.08;39.90;99852.25;4482341;32;33506;-56
2021/04/14 09:24:55;;;;;;;7.60;1.40;;;;;;;24.05;39.97;99857.34;4483426;32;34873;-53
2021/04/14 09:27:30;;;;;;;5.65;1.83;;;;;;;24.02;40.03;99861.38;4482162;32;33450;-52
2021/04/14 09:30:27;;;;;;;5.22;1.20;;;;;;;24.00;40.03;99858.03;4483185;32;33015;-56
2021/04/14 09:32:59;;;;;;;3.22;0.98;;;;;;;24.02;40.00;99858.63;4481960;32;33661;-57
2021/04/14 09:35:28;;;;;;;6.82;1.25;;;;;;;23.98;39.93;99854.72;4483005;32;34805;-55
2021/04/14 09:40:48;;;;;;;7.45;1.40;;;;;;;23.98;39.97;99851.97;4479262;32;33313;-55
2021/04/14 09:43:17;;;;;;;5.90;1.50;;;;;;;23.93;40.03;99849.94;4467227;32;34645;-54
2021/04/14 09:45:59;;;;;;;7.57;1.27;;;;;;;23.93;40.07;99849.09;4470154;32;34767;-57
2021/04/14 09:48:46;;;;;;;5.82;1.30;;;;;;;23.93;40.01;99847.22;4481500;32;33431;-53
2021/04/14 09:51:34;;;;;;;4.18;1.40;;;;;;;23.92;39.99;99856.47;4483068;32;33315;-54
2021/04/14 09:54:13;;;;;;;4.60;1.25;;;;;;;23.93;40.01;99841.75;4481468;32;33530;-54
2021/04/14 09:56:43;;;;;;;8.57;1.60;;;;;;;23.90;39.90;99844.09;4481746;32;34064;-55
2021/04/14 09:59:14;;;;;;;5.22;1.48;;;;;;;23.87;40.15;99844.56;4468917;32;34574;-55
2021/04/14 10:01:41;;;;;;;3.70;1.20;;;;;;;23.86;40.17;99842.91;4468669;32;33275;-56
2021/04/14 10:04:19;;;;;;;7.20;1.23;;;;;;;23.85;40.00;99847.53;4481734;32;33770;-54
2021/04/14 10:06:46;;;;;;;7.05;1.45;;;;;;;23.85;40.12;99844.78;4481368;32;33854;-55
2021/04/14 10:09:26;;;;;;;5.80;1.12;;;;;;;23.83;40.17;99843.38;4482642;32;34405;-57
2021/04/14 10:11:53;;;;;;;6.18;1.45;;;;;;;23.84;40.12;99834.13;4468676;32;34067;-50
2021/04/14 10:14:22;;;;;;;5.53;1.37;;;;;;;23.81;40.20;99840.03;4480983;32;33508;-53
2021/04/14 10:16:50;;;;;;;6.05;1.50;;;;;;;23.80;40.17;99836.47;4481088;32;33842;-54
2021/04/14 10:19:30;;;;;;;4.50;1.17;;;;;;;23.79;40.22;99828.53;4482357;32;34568;-55
2021/04/14 10:22:07;;;;;;;9.52;1.73;;;;;;;23.80;40.21;99830.19;4482365;32;34116;-53
2021/04/14 10:24:34;;;;;;;5.12;1.35;;;;;;;23.78;40.30;99840.47;4482378;32;33805;-51
2021/04/14 10:27:06;;;;;;;7.25;1.52;;;;;;;23.75;40.27;99822.69;4481005;32;35069;-53
2021/04/14 10:29:37;;;;;;;4.47;1.23;;;;;;;23.77;40.27;99827.91;4481025;32;33735;-58
2021/04/14 10:32:04;;;;;;;4.80;1.30;;;;;;;23.75;40.25;99830.88;4481059;32;33319;-60
2021/04/14 10:34:35;;;;;;;5.32;1.37;;;;;;;23.73;40.06;99830.25;4457097;31;33578;-51
2021/04/14 10:37:17;;;;;;;7.80;1.60;;;;;;;23.73;40.04;99835.72;4473106;31;35617;-49
2021/04/14 10:39:44;;;;;;;6.30;1.37;;;;;;;23.74;40.05;99836.56;4475125;32;33693;-53
2021/04/14 10:42:22;;;;;;;7.75;1.87;;;;;;;23.71;40.12;99826.09;4482190;32;33273;-54
2021/04/14 10:44:49;;;;;;;8.13;1.58;;;;;;;23.71;40.14;99828.84;4484321;32;33690;-53
2021/04/14 10:47:20;;;;;;;4.28;1.20;;;;;;;23.70;40.13;99827.19;4484610;32;33642;-55
2021/04/14 10:49:47;;;;;;;;;;;;;;;23.67;40.13;99821.09;4470989;32;34429;-56
2021/04/14 10:52:19;;;;;;;7.80;1.50;;;;;;;23.78;39.98;99815.94;4472835;32;34317;-51
2021/04/14 10:54:49;;;;;;;8.82;1.83;;;;;;;23.70;40.09;99824.44;4467829;32;33797;-55
2021/04/14 10:57:23;;;;;;;5.07;1.33;;;;;;;23.66;40.12;99824.06;4467957;32;33803;-56
2021/04/14 10:59:50;;;;;;;4.47;1.30;;;;;;;23.66;40.15;99818.63;4468808;32;33719;-54
2021/04/14 11:02:23;;;;;;;6.53;1.85;;;;;;;23.65;40.25;99815.06;4454761;32;33193;-54
2021/04/14 11:04:51;;;;;;;5.82;1.55;;;;;;;23.66;40.24;99813.16;4455084;32;34410;-54
2021/04/14 11:07:22;;;;;;;6.68;1.75;;;;;;;23.64;40.25;99813.41;4468858;32;34595;-55
2021/04/14 11:09:54;;;;;;;4.78;1.17;;;;;;;23.64;40.28;99818.00;4468530;32;33540;-51
2021/04/14 11:12:23;;;;;;;7.07;1.17;;;;;;;23.64;40.14;99813.41;4454978;32;32517;-53
2021/04/14 11:14:52;;;;;;;5.60;1.35;;;;;;;23.64;40.26;99815.28;4454758;32;33714;-56
2021/04/14 11:17:29;;;;;;;4.63;1.17;;;;;;;23.62;40.30;99810.03;4454858;32;33782;-53
2021/04/14 11:19:57;;;;;;;8.50;1.50;;;;;;;23.65;40.16;99815.06;4468294;32;33538;-55
2021/04/14 11:22:25;;;;;;;6.37;1.25;;;;;;;23.63;40.27;99813.59;4468743;32;34113;-50
2021/04/14 11:24:54;;;;;;;5.47;1.10;;;;;;;23.63;40.32;99817.13;4467185;32;34722;-56
2021/04/14 11:27:29;;;;;;;4.25;1.40;;;;;;;23.62;40.36;99812.75;4470615;32;33816;-51
2021/04/14 11:30:26;;;;;;;7.35;1.60;;;;;;;23.62;40.29;99804.59;4483232;32;33396;-52
2021/04/14 11:32:54;;;;;;;3.78;1.20;;;;;;;23.65;40.37;99808.78;4474505;31;33129;-53
2021/04/14 11:35:54;;;;;;;4.60;1.23;;;;;;;23.61;40.40;99805.66;4482916;32;33432;-51
2021/04/14 11:38:37;;;;;;;4.50;1.20;;;;;;;23.64;40.36;99810.69;4449872;32;33589;-54
2021/04/14 11:41:31;;;;;;;3.92;1.10;;;;;;;23.63;40.27;99810.87;4484402;32;34428;-54
2021/04/14 11:43:59;;;;;;;6.28;1.17;;;;;;;23.62;40.41;99820.09;4484348;32;33225;-59
2021/04/14 11:46:37;;;;;;;5.07;1.37;;;;;;;23.58;40.44;99814.25;4483321;32;33744;-59
2021/04/14 11:49:24;;;;;;;3.40;1.12;;;;;;;23.58;40.25;99814.25;4484513;32;34863;-56
2021/04/14 11:51:51;;;;;;;6.05;1.42;;;;;;;23.58;40.30;99817.00;4483160;32;34681;-55
2021/04/14 11:54:19;;;;;;;4.57;1.10;;;;;;;23.56;40.27;99810.13;4470344;32;33228;-58
2021/04/14 11:56:53;;;;;;;7.95;1.48;;;;;;;23.55;40.27;99816.59;4484452;32;33872;-59
2021/04/14 11:59:26;;;;;;;4.93;1.27;;;;;;;23.53;40.28;99819.56;4484456;32;33784;-55
2021/04/14 12:02:00;;;;;;;3.47;1.12;;;;;;;23.52;40.26;99817.06;4470589;32;33741;-58